Terminal Aerodrome Forecast
Issued by NWS Binghamton, NY

Home | Current Version | Previous Version | Text Only | Print | Product List | Glossary On
Versions: 1 2 3 4 5 6 7 8 9 10 11 12 13 14 15
151
FTUS41 KBGM 251312 AAA
TAFBGM
TAF AMD
KBGM 251312Z 2513/2612 12008KT 5SM -RA BR SCT003 OVC007
      TEMPO 2513/2517 2SM -RA BR OVC003
     FM252200 VRB04KT 3SM -SHRA BR OVC008
     FM260400 30009KT P6SM OVC007=

USA.gov is the U.S. government's official web portal to all federal, state and local government web resources and services.